Time;durP1;ratioP1;P1;durP2;ratioP2;P2;SDS_P1;SDS_P2;PMS_P1;PMS_P2;Temp;Humidity;BMP_temperature;BMP_pressure;BME280_temperature;BME280_humidity;BME280_pressure;Samples;Min_cycle;Max_cycle;Signal;HPM_P1;HPM_P2
2021/05/05 05:03:34;;;;;;;2.97;1.07;;;8.90;92.70;;;;;;4994302;28;20597;-93
2021/05/05 05:06:01;;;;;;;2.67;1.63;;;8.80;92.50;;;;;;5013340;28;20219;-93
2021/05/05 05:08:31;;;;;;;2.20;1.30;;;8.70;93.30;;;;;;5018753;28;20211;-93
2021/05/05 05:10:58;;;;;;;3.23;1.63;;;8.60;93.90;;;;;;5009653;28;20204;-92
2021/05/05 05:13:24;;;;;;;3.30;1.30;;;8.40;93.90;;;;;;5022675;28;20212;-94
2021/05/05 05:15:53;;;;;;;2.33;1.57;;;8.40;94.50;;;;;;4994769;28;20231;-91
2021/05/05 05:18:20;;;;;;;2.23;1.07;;;8.40;94.80;;;;;;5015270;28;20208;-91
2021/05/05 05:20:48;;;;;;;2.33;1.40;;;8.30;94.10;;;;;;5010964;28;20289;-91
2021/05/05 05:23:14;;;;;;;2.97;1.63;;;8.10;94.70;;;;;;5010402;28;20215;-91
2021/05/05 05:25:41;;;;;;;3.23;1.47;;;8.00;94.80;;;;;;4997432;28;20243;-92
2021/05/05 05:28:07;;;;;;;6.33;1.67;;;8.00;95.70;;;;;;5021301;28;20225;-93
2021/05/05 05:30:33;;;;;;;3.47;1.50;;;8.10;95.90;;;;;;5014101;28;20224;-91
2021/05/05 05:33:01;;;;;;;4.23;1.50;;;8.00;95.70;;;;;;5006535;28;20204;-89
2021/05/05 05:35:28;;;;;;;2.00;1.27;;;8.00;94.80;;;;;;5006148;28;20228;-89
2021/05/05 05:37:54;;;;;;;2.57;1.13;;;7.90;95.30;;;;;;4992826;28;20204;-91
2021/05/05 05:40:23;;;;;;;2.87;1.10;;;7.80;94.50;;;;;;5009884;28;20235;-92
2021/05/05 05:42:49;;;;;;;1.93;1.27;;;7.70;95.60;;;;;;5009799;28;20234;-90
2021/05/05 05:45:19;;;;;;;1.67;1.30;;;7.60;95.30;;;;;;5007624;28;20285;-89
2021/05/05 05:47:45;;;;;;;2.53;1.33;;;7.60;95.60;;;;;;5011918;28;20215;-94
2021/05/05 05:50:15;;;;;;;2.37;1.37;;;7.60;95.60;;;;;;5000408;28;20235;-89
2021/05/05 05:52:48;;;;;;;4.03;1.30;;;7.80;95.40;;;;;;5002417;28;20207;-92
2021/05/05 05:55:17;;;;;;;1.80;1.23;;;7.70;95.30;;;;;;5005272;28;20253;-90
2021/05/05 05:57:46;;;;;;;2.03;1.20;;;7.80;95.10;;;;;;5009509;28;20216;-88
2021/05/05 06:00:15;;;;;;;1.73;1.30;;;7.90;94.50;;;;;;5010535;28;20233;-86
2021/05/05 06:02:42;;;;;;;3.27;1.53;;;7.80;94.20;;;;;;5010791;28;20306;-86
2021/05/05 06:05:10;;;;;;;4.73;1.33;;;7.70;94.90;;;;;;5008949;28;20235;-89
2021/05/05 06:07:40;;;;;;;2.67;1.33;;;7.60;95.20;;;;;;4993495;28;20199;-89
2021/05/05 06:10:09;;;;;;;5.97;1.50;;;7.70;95.60;;;;;;5011761;28;20227;-86
2021/05/05 06:12:36;;;;;;;1.70;1.40;;;7.70;94.90;;;;;;5007076;28;20203;-86
2021/05/05 06:15:04;;;;;;;1.87;1.33;;;7.50;94.00;;;;;;5009837;28;20238;-86
2021/05/05 06:17:31;;;;;;;2.17;1.20;;;7.50;95.60;;;;;;5018860;28;20639;-88
2021/05/05 06:19:58;;;;;;;3.83;1.50;;;7.40;94.70;;;;;;5011804;28;20227;-88
2021/05/05 06:22:27;;;;;;;3.53;1.70;;;7.30;95.60;;;;;;5025077;28;20226;-87
2021/05/05 06:24:54;;;;;;;3.47;1.57;;;7.20;95.50;;;;;;5022358;28;20226;-88
2021/05/05 06:27:21;;;;;;;1.33;1.20;;;7.30;96.10;;;;;;5015150;28;20199;-87
2021/05/05 06:29:48;;;;;;;1.50;1.00;;;7.30;95.60;;;;;;4995699;28;20315;-87
2021/05/05 06:32:15;;;;;;;6.17;1.33;;;7.30;95.40;;;;;;5014847;28;20195;-89
2021/05/05 06:34:41;;;;;;;2.27;1.20;;;7.30;95.60;;;;;;5021214;28;20234;-92
2021/05/05 06:37:08;;;;;;;1.60;1.13;;;7.30;95.60;;;;;;4993748;28;20215;-89
2021/05/05 06:39:34;;;;;;;2.30;1.30;;;7.20;95.20;;;;;;4998172;28;20230;-88
2021/05/05 06:42:02;;;;;;;3.73;1.30;;;7.30;96.10;;;;;;5011471;28;20291;-89
2021/05/05 06:44:28;;;;;;;2.13;1.27;;;7.30;95.60;;;;;;5004653;28;20231;-90
2021/05/05 06:46:55;;;;;;;2.47;1.17;;;7.10;95.50;;;;;;5005262;28;20267;-88
2021/05/05 06:49:23;;;;;;;3.67;1.30;;;7.00;95.50;;;;;;5010609;28;20230;-88
2021/05/05 06:51:50;;;;;;;3.93;1.20;;;7.10;95.50;;;;;;5003710;28;20204;-89
2021/05/05 06:54:17;;;;;;;1.77;1.23;;;7.10;95.10;;;;;;5007623;28;20583;-89
2021/05/05 06:56:45;;;;;;;0.93;0.90;;;7.00;95.50;;;;;;5012371;28;20210;-90
2021/05/05 06:59:12;;;;;;;5.10;1.10;;;6.90;94.30;;;;;;5012695;28;20636;-90
2021/05/05 07:01:40;;;;;;;0.77;0.77;;;6.70;94.80;;;;;;5012688;28;20246;-88
2021/05/05 07:04:07;;;;;;;1.73;1.07;;;6.60;94.90;;;;;;5011140;28;20227;-90
2021/05/05 07:06:35;;;;;;;2.27;1.10;;;6.70;95.40;;;;;;5004979;28;20229;-89
2021/05/05 07:09:03;;;;;;;2.07;1.13;;;6.60;95.40;;;;;;5011956;28;20234;-87
2021/05/05 07:11:32;;;;;;;1.13;0.90;;;6.70;95.00;;;;;;5010590;28;20206;-92
2021/05/05 07:14:01;;;;;;;4.27;1.27;;;6.90;95.20;;;;;;5007437;28;20253;-89
2021/05/05 07:16:28;;;;;;;4.53;1.53;;;6.90;95.20;;;;;;5011902;28;20216;-90
2021/05/05 07:18:55;;;;;;;2.40;1.20;;;7.00;94.60;;;;;;4985655;28;20196;-88
2021/05/05 07:21:24;;;;;;;0.83;0.80;;;7.00;94.30;;;;;;5015611;28;20210;-88
2021/05/05 07:23:51;;;;;;;1.87;1.50;;;7.10;93.30;;;;;;5009782;28;20231;-87
2021/05/05 07:26:17;;;;;;;1.27;0.90;;;7.20;93.60;;;;;;4989174;28;20202;-87
2021/05/05 07:28:46;;;;;;;3.30;1.10;;;7.30;93.30;;;;;;5011749;28;20223;-89
2021/05/05 07:31:13;;;;;;;4.83;2.00;;;7.30;93.00;;;;;;4995174;28;20494;-89
2021/05/05 07:33:41;;;;;;;1.33;1.17;;;7.40;92.90;;;;;;5010813;28;20231;-87
2021/05/05 07:36:13;;;;;;;1.77;1.43;;;7.40;93.10;;;;;;5008837;28;20207;-91
2021/05/05 07:42:13;;;;;;;1.93;1.00;;;7.60;93.70;;;;;;4967672;28;20289;-89
2021/05/05 07:47:22;;;;;;;1.10;0.90;;;8.20;92.50;;;;;;5003507;28;20196;-87
2021/05/05 07:49:56;;;;;;;3.30;1.27;;;8.70;91.70;;;;;;5016882;28;20681;-87
2021/05/05 07:52:29;;;;;;;2.77;1.00;;;8.90;90.40;;;;;;5018206;28;20214;-88
2021/05/05 07:54:56;;;;;;;1.40;1.30;;;8.90;90.40;;;;;;5016376;28;20224;-87
2021/05/05 07:57:22;;;;;;;1.20;0.90;;;8.90;90.40;;;;;;4992880;28;20210;-87
2021/05/05 07:59:49;;;;;;;1.10;0.90;;;9.20;90.50;;;;;;5010473;28;20223;-87
2021/05/05 08:02:26;;;;;;;1.30;0.90;;;9.40;87.70;;;;;;5015879;28;20649;-87
2021/05/05 08:04:52;;;;;;;1.30;0.90;;;9.60;87.80;;;;;;5007611;28;20219;-88
2021/05/05 08:07:23;;;;;;;2.83;1.10;;;9.40;87.90;;;;;;5013918;28;20203;-87
2021/05/05 08:09:52;;;;;;;3.47;1.10;;;9.30;88.30;;;;;;4995533;28;20258;-87
2021/05/05 08:12:19;;;;;;;1.50;1.00;;;9.20;90.20;;;;;;5016380;28;20218;-90
2021/05/05 08:14:57;;;;;;;0.80;0.80;;;9.20;87.70;;;;;;5018914;28;20238;-88
2021/05/05 08:17:23;;;;;;;2.33;1.17;;;9.30;88.50;;;;;;5015444;28;20195;-88
2021/05/05 08:19:50;;;;;;;2.88;1.10;;;9.10;89.50;;;;;;5010786;28;20226;-88
2021/05/05 08:22:17;;;;;;;1.33;0.80;;;9.20;90.50;;;;;;5008722;28;20203;-87
2021/05/05 08:24:44;;;;;;;1.50;1.20;;;9.00;90.10;;;;;;4984391;28;20230;-88
2021/05/05 08:27:10;;;;;;;2.00;1.03;;;8.70;90.40;;;;;;5011402;28;20573;-88
2021/05/05 08:29:37;;;;;;;0.70;0.70;;;8.70;90.40;;;;;;5018944;28;20260;-88
2021/05/05 08:32:05;;;;;;;1.13;1.00;;;8.80;90.40;;;;;;5021739;28;20257;-88
2021/05/05 08:34:32;;;;;;;2.20;1.10;;;8.80;91.40;;;;;;5021195;28;20234;-87
2021/05/05 08:36:59;;;;;;;0.80;0.80;;;8.80;91.30;;;;;;5013987;28;20207;-87
2021/05/05 08:39:25;;;;;;;1.20;0.90;;;8.80;91.10;;;;;;5020118;28;20227;-89
2021/05/05 08:41:53;;;;;;;1.50;1.10;;;8.70;91.30;;;;;;5027776;28;20206;-88
2021/05/05 08:44:20;;;;;;;1.70;1.20;;;8.80;92.00;;;;;;5014242;28;20222;-89
2021/05/05 08:46:48;;;;;;;1.70;1.00;;;9.10;91.60;;;;;;4997876;28;20203;-88
2021/05/05 08:49:15;;;;;;;0.80;0.80;;;9.40;90.00;;;;;;5016308;28;20222;-89
2021/05/05 08:51:43;;;;;;;1.10;1.00;;;9.50;88.50;;;;;;5022645;28;20199;-88
2021/05/05 08:54:09;;;;;;;0.70;0.70;;;9.40;88.80;;;;;;4998319;28;20222;-87
2021/05/05 08:56:38;;;;;;;1.23;0.93;;;9.20;90.50;;;;;;5022435;28;20230;-88
2021/05/05 08:59:07;;;;;;;3.00;1.00;;;9.20;90.30;;;;;;5000317;28;20231;-88
2021/05/05 09:01:34;;;;;;;0.63;0.63;;;9.30;90.50;;;;;;5020464;28;20212;-88
2021/05/05 09:04:01;;;;;;;2.15;0.88;;;9.40;90.10;;;;;;5012497;28;20590;-88
2021/05/05 09:06:52;;;;;;;1.13;1.02;;;9.40;90.50;;;;;;5013098;28;20228;-87
2021/05/05 09:09:36;;;;;;;2.20;0.80;;;9.40;90.50;;;;;;5022350;28;20301;-87
2021/05/05 09:12:13;;;;;;;1.10;1.00;;;9.30;90.50;;;;;;5017977;28;20299;-87
2021/05/05 09:14:51;;;;;;;0.90;0.90;;;9.30;90.50;;;;;;5021333;28;20230;-89
2021/05/05 09:17:18;;;;;;;1.00;1.00;;;9.20;90.10;;;;;;5017831;28;20553;-89
2021/05/05 09:19:45;;;;;;;2.45;1.20;;;8.90;91.10;;;;;;5010891;28;20256;-88
2021/05/05 09:22:12;;;;;;;1.20;1.10;;;9.00;91.00;;;;;;5012510;28;20208;-87
2021/05/05 09:24:39;;;;;;;2.78;1.20;;;8.90;90.90;;;;;;5019262;28;20254;-88
2021/05/05 09:27:08;;;;;;;0.90;0.90;;;8.90;91.80;;;;;;5024410;28;20200;-87
2021/05/05 09:29:41;;;;;;;0.88;0.88;;;8.80;91.40;;;;;;5015774;28;20235;-87
2021/05/05 09:32:11;;;;;;;2.10;1.23;;;8.70;92.20;;;;;;5003853;28;20205;-87
2021/05/05 09:34:38;;;;;;;1.67;1.02;;;8.60;92.90;;;;;;5013814;28;20239;-87
2021/05/05 09:37:07;;;;;;;1.17;1.08;;;8.80;93.20;;;;;;5015716;28;20200;-88
2021/05/05 09:39:38;;;;;;;1.50;1.40;;;9.20;92.70;;;;;;5020346;28;20235;-89
2021/05/05 09:42:23;;;;;;;1.08;1.00;;;9.50;92.20;;;;;;5021290;28;20257;-88
2021/05/05 09:44:55;;;;;;;1.20;1.10;;;9.90;90.70;;;;;;5019375;28;20700;-88
2021/05/05 09:47:22;;;;;;;1.20;1.10;;;10.00;90.30;;;;;;5016065;28;20200;-87
2021/05/05 09:49:49;;;;;;;1.20;1.10;;;10.10;90.40;;;;;;5012644;28;20223;-87
2021/05/05 09:52:23;;;;;;;1.55;1.27;;;10.20;90.10;;;;;;5016164;28;20205;-86
2021/05/05 09:54:55;;;;;;;3.42;1.30;;;10.00;88.30;;;;;;5001284;28;20222;-90
2021/05/05 09:57:24;;;;;;;1.20;1.10;;;9.80;89.20;;;;;;5013456;28;20230;-87
2021/05/05 09:59:56;;;;;;;2.25;1.17;;;9.60;90.00;;;;;;5025042;28;20227;-87
2021/05/05 10:02:24;;;;;;;1.52;1.38;;;9.40;90.50;;;;;;5011478;28;20295;-88
2021/05/05 10:05:08;;;;;;;3.63;1.27;;;9.70;88.10;;;;;;5018141;28;20331;-87
2021/05/05 10:07:55;;;;;;;1.15;0.88;;;9.90;84.30;;;;;;5014783;28;20210;-87
2021/05/05 10:10:25;;;;;;;1.52;0.95;;;9.90;81.30;;;;;;5013483;28;20226;-90
2021/05/05 10:12:52;;;;;;;2.13;0.88;;;10.00;81.10;;;;;;5017636;28;20207;-90
2021/05/05 10:15:19;;;;;;;1.00;0.93;;;9.80;79.50;;;;;;5015906;28;20231;-90
2021/05/05 10:17:50;;;;;;;2.70;1.75;;;9.70;83.10;;;;;;5008281;28;20263;-91
2021/05/05 10:20:28;;;;;;;2.63;1.27;;;10.00;83.10;;;;;;4972936;28;20396;-89
2021/05/05 10:22:56;;;;;;;0.90;0.90;;;10.10;81.70;;;;;;5008569;28;20307;-90
2021/05/05 10:25:23;;;;;;;3.85;1.00;;;9.90;83.50;;;;;;5019871;28;20241;-89
2021/05/05 10:27:51;;;;;;;1.45;1.20;;;9.60;84.00;;;;;;5019616;28;20234;-90
2021/05/05 10:30:40;;;;;;;1.30;0.93;;;9.60;85.60;;;;;;5023141;28;20241;-87
2021/05/05 10:33:13;;;;;;;1.00;0.90;;;9.70;86.80;;;;;;5016066;28;20205;-89
2021/05/05 10:36:24;;;;;;;4.35;0.95;;;9.70;82.60;;;;;;4999696;28;20226;-88
2021/05/05 10:42:01;;;;;;;1.38;0.80;;;10.00;81.20;;;;;;5021436;28;20199;-88
2021/05/05 10:44:42;;;;;;;0.70;0.60;;;10.10;80.30;;;;;;5024884;28;20270;-88
2021/05/05 10:47:31;;;;;;;1.63;0.80;;;10.00;80.40;;;;;;5015060;28;20231;-92
2021/05/05 10:53:03;;;;;;;1.35;1.05;;;9.60;85.30;;;;;;5003142;28;20559;-91
2021/05/05 10:55:50;;;;;;;3.90;1.60;;;9.20;88.60;;;;;;5015986;28;20226;-92
2021/05/05 10:58:20;;;;;;;2.87;1.40;;;8.40;83.80;;;;;;5002658;28;20199;-89
2021/05/05 11:01:33;;;;;;;4.20;1.90;;;7.50;87.80;;;;;;4998597;28;20239;-89
2021/05/05 11:04:01;;;;;;;6.77;2.23;;;6.90;90.50;;;;;;4993047;28;20220;-88
2021/05/05 11:07:01;;;;;;;3.40;2.10;;;6.50;92.90;;;;;;5015791;28;20199;-86
2021/05/05 11:09:45;;;;;;;3.00;2.10;;;6.40;93.80;;;;;;4952135;28;20240;-88
2021/05/05 11:12:49;;;;;;;6.93;1.97;;;6.40;93.80;;;;;;5015396;28;20199;-90
2021/05/05 11:15:16;;;;;;;4.27;2.10;;;6.30;93.50;;;;;;5006808;28;20231;-88
2021/05/05 11:17:43;;;;;;;6.07;1.93;;;6.50;94.10;;;;;;5010153;28;20628;-85
2021/05/05 11:20:11;;;;;;;4.97;1.83;;;6.60;94.40;;;;;;5012149;28;20246;-86
2021/05/05 11:22:49;;;;;;;3.83;1.90;;;6.60;94.40;;;;;;5012157;28;20203;-86
2021/05/05 11:25:20;;;;;;;2.07;1.63;;;6.80;94.80;;;;;;5003429;28;20240;-85
2021/05/05 11:27:50;;;;;;;4.47;1.80;;;6.90;94.50;;;;;;5021001;28;20203;-89
2021/05/05 11:30:40;;;;;;;3.53;1.50;;;7.20;94.20;;;;;;5019532;28;20237;-89
2021/05/05 11:33:09;;;;;;;4.70;1.90;;;7.70;93.10;;;;;;5017881;28;20227;-89
2021/05/05 11:35:37;;;;;;;2.57;2.00;;;8.00;92.00;;;;;;5007572;28;20223;-78
2021/05/05 11:38:18;;;;;;;3.73;2.20;;;8.40;91.60;;;;;;5005222;28;20203;-78
2021/05/05 11:40:51;;;;;;;2.87;1.87;;;8.70;90.20;;;;;;5003735;28;20226;-78
2021/05/05 11:43:19;;;;;;;4.17;2.17;;;8.80;89.80;;;;;;5004164;28;20760;-79
2021/05/05 11:45:50;;;;;;;4.27;2.43;;;8.70;90.40;;;;;;4998215;28;20289;-78
2021/05/05 11:48:34;;;;;;;6.13;1.90;;;8.40;87.70;;;;;;5004263;28;20207;-78
2021/05/05 11:51:20;;;;;;;3.60;1.50;;;8.30;86.80;;;;;;5006496;28;20716;-89
2021/05/05 11:53:47;;;;;;;2.43;1.63;;;8.80;89.40;;;;;;5022472;28;20255;-87
2021/05/05 11:56:24;;;;;;;3.55;1.67;;;9.20;88.00;;;;;;5033666;28;20199;-87
2021/05/05 12:02:12;;;;;;;4.72;1.60;;;10.00;86.50;;;;;;5019142;28;20242;-87
2021/05/05 12:04:42;;;;;;;3.25;1.50;;;10.10;80.00;;;;;;5012736;28;20239;-86
2021/05/05 12:07:11;;;;;;;3.25;1.50;;;9.90;80.90;;;;;;5005076;28;20561;-87
2021/05/05 12:13:04;;;;;;;2.88;1.50;;;10.00;80.40;;;;;;5020010;28;20289;-90
2021/05/05 12:15:30;;;;;;;3.03;1.70;;;10.40;77.90;;;;;;5026480;28;20219;-90
2021/05/05 12:18:04;;;;;;;2.35;1.52;;;10.70;79.00;;;;;;5012296;28;20278;-90
2021/05/05 12:20:32;;;;;;;2.97;1.55;;;10.90;75.90;;;;;;4997704;28;20232;-88
2021/05/05 12:23:00;;;;;;;2.40;1.48;;;10.80;77.60;;;;;;5017081;28;20251;-87
2021/05/05 12:25:29;;;;;;;4.13;1.70;;;10.80;77.40;;;;;;5011016;28;20230;-87
2021/05/05 12:28:17;;;;;;;2.08;1.42;;;10.60;76.00;;;;;;5016448;28;20203;-91
2021/05/05 12:31:05;;;;;;;2.95;1.75;;;10.50;77.60;;;;;;5010432;28;20258;-92
2021/05/05 12:33:38;;;;;;;3.88;2.03;;;10.60;76.00;;;;;;5007313;28;20762;-90
2021/05/05 12:36:10;;;;;;;2.03;1.50;;;10.60;74.70;;;;;;4983368;28;20729;-90
2021/05/05 12:38:40;;;;;;;2.78;1.63;;;10.50;74.10;;;;;;5009818;28;20204;-90
2021/05/05 12:41:08;;;;;;;2.65;1.98;;;10.70;76.20;;;;;;4984779;28;20226;-91
2021/05/05 12:43:37;;;;;;;2.30;1.48;;;10.70;73.80;;;;;;5009572;28;20255;-90
2021/05/05 12:46:04;;;;;;;2.20;1.88;;;10.80;74.00;;;;;;4986858;28;20277;-89
2021/05/05 12:48:39;;;;;;;3.17;1.42;;;10.50;76.60;;;;;;5013357;28;20334;-91
2021/05/05 12:54:03;;;;;;;3.60;1.50;;;10.80;72.90;;;;;;5017114;28;20246;-88
2021/05/05 12:56:46;;;;;;;4.10;1.75;;;11.00;74.10;;;;;;5014159;28;20200;-90
2021/05/05 12:59:17;;;;;;;2.88;1.60;;;11.30;74.60;;;;;;5024632;28;20231;-90
2021/05/05 13:01:45;;;;;;;2.28;1.63;;;11.50;72.10;;;;;;5016226;28;20290;-88
2021/05/05 13:04:11;;;;;;;2.55;1.42;;;11.70;68.90;;;;;;5015534;28;20237;-89
2021/05/05 13:06:40;;;;;;;2.30;1.70;;;11.60;64.70;;;;;;5011888;28;20253;-88
2021/05/05 13:09:17;;;;;;;2.47;1.55;;;11.40;64.20;;;;;;5004236;28;20314;-88
2021/05/05 13:11:47;;;;;;;2.40;1.48;;;11.20;68.00;;;;;;5004739;28;20594;-89
2021/05/05 13:14:35;;;;;;;3.20;1.70;;;11.50;69.30;;;;;;5006657;28;20232;-87
2021/05/05 13:17:17;;;;;;;2.50;1.70;;;11.90;68.30;;;;;;5030123;28;20353;-87
2021/05/05 13:29:44;;;;;;;5.70;1.88;;;12.40;57.60;;;;;;5027390;28;20233;-89
2021/05/05 13:32:35;;;;;;;2.90;1.80;;;12.30;54.60;;;;;;5030896;28;20204;-90
2021/05/05 13:35:24;;;;;;;4.57;1.55;;;11.90;56.20;;;;;;5023023;28;20254;-88
2021/05/05 13:37:56;;;;;;;6.10;1.85;;;11.60;53.00;;;;;;5013589;28;20202;-87
2021/05/05 13:40:23;;;;;;;6.07;1.90;;;11.80;49.60;;;;;;5018596;28;20231;-89
2021/05/05 13:42:53;;;;;;;2.72;1.60;;;11.90;50.00;;;;;;5020527;28;20258;-91
2021/05/05 13:45:21;;;;;;;4.22;2.05;;;12.00;48.60;;;;;;4997421;28;20238;-88
2021/05/05 13:47:55;;;;;;;3.35;1.98;;;11.90;48.50;;;;;;5015123;28;20196;-90
2021/05/05 13:50:25;;;;;;;9.32;2.10;;;11.90;49.80;;;;;;5014929;28;20586;-90
2021/05/05 13:52:52;;;;;;;8.30;2.10;;;11.70;48.40;;;;;;5004190;28;20207;-90
2021/05/05 13:55:19;;;;;;;6.18;1.75;;;11.30;47.90;;;;;;5001844;28;20241;-91
2021/05/05 13:57:45;;;;;;;5.43;1.83;;;11.20;47.80;;;;;;5034588;28;20202;-90
2021/05/05 14:06:21;;;;;;;13.85;1.65;;;11.00;45.10;;;;;;5013711;28;20595;-92
2021/05/05 14:08:48;;;;;;;7.20;1.90;;;11.00;47.30;;;;;;5004264;28;20677;-90
2021/05/05 14:11:15;;;;;;;4.80;1.80;;;11.10;47.70;;;;;;5010714;28;20979;-92
2021/05/05 14:13:42;;;;;;;4.70;1.70;;;11.10;45.30;;;;;;5000051;28;20211;-92
2021/05/05 14:16:11;;;;;;;4.25;2.05;;;11.30;44.50;;;;;;5020249;28;20222;-90
2021/05/05 14:18:42;;;;;;;6.65;1.80;;;11.40;45.30;;;;;;5015896;28;20198;-90
2021/05/05 14:21:12;;;;;;;5.10;1.67;;;11.60;47.10;;;;;;5017257;28;20211;-90
2021/05/05 14:23:40;;;;;;;4.05;1.63;;;11.90;41.60;;;;;;5014088;28;20230;-89
2021/05/05 14:26:06;;;;;;;4.65;1.50;;;12.10;40.20;;;;;;5015553;28;20231;-91
2021/05/05 14:28:37;;;;;;;6.10;1.75;;;12.20;39.00;;;;;;4988406;28;20253;-91
2021/05/05 14:31:03;;;;;;;6.00;2.22;;;12.20;39.50;;;;;;5015602;28;20245;-90
2021/05/05 14:33:30;;;;;;;2.95;1.60;;;12.20;38.80;;;;;;5011766;28;20273;-91
2021/05/05 14:35:57;;;;;;;3.05;1.48;;;12.10;38.20;;;;;;4992235;28;20258;-90
2021/05/05 14:38:27;;;;;;;8.40;1.50;;;11.80;40.80;;;;;;5013112;28;20254;-88
2021/05/05 14:40:54;;;;;;;4.47;1.88;;;11.40;45.20;;;;;;4989367;28;20220;-91
2021/05/05 14:43:26;;;;;;;5.22;1.65;;;11.20;44.90;;;;;;5014784;28;20227;-92
2021/05/05 14:48:38;;;;;;;3.53;1.70;;;11.20;47.80;;;;;;4991949;28;20281;-93
2021/05/05 14:51:06;;;;;;;4.35;1.98;;;11.10;47.70;;;;;;5019049;28;20314;-94
2021/05/05 14:53:39;;;;;;;4.57;1.35;;;11.10;47.80;;;;;;5016401;28;20199;-91
2021/05/05 14:56:06;;;;;;;5.43;1.50;;;11.30;47.90;;;;;;5003476;28;20706;-93
2021/05/05 14:58:37;;;;;;;5.93;1.65;;;11.50;48.20;;;;;;5003503;28;20546;-93
2021/05/05 15:01:04;;;;;;;3.83;1.33;;;11.60;46.60;;;;;;5012962;28;20223;-92
2021/05/05 15:03:31;;;;;;;4.18;1.50;;;11.60;44.80;;;;;;5014201;28;20233;-93
2021/05/05 15:08:45;;;;;;;4.03;1.60;;;11.10;43.90;;;;;;4995455;28;20239;-93
2021/05/05 15:14:08;;;;;;;4.55;1.90;;;11.20;44.60;;;;;;5016905;28;20241;-88
2021/05/05 15:35:50;;;;;;;3.15;1.55;;;11.60;42.40;;;;;;5006455;28;20235;-91
2021/05/05 15:38:20;;;;;;;3.00;1.40;;;11.40;42.00;;;;;;5014681;28;20207;-92
2021/05/05 15:40:58;;;;;;;3.42;1.48;;;11.20;44.20;;;;;;4993533;28;20224;-93
2021/05/05 15:43:57;;;;;;;4.05;1.60;;;11.10;44.30;;;;;;5006070;28;20249;-92
2021/05/05 15:46:27;;;;;;;3.55;1.20;;;11.30;44.90;;;;;;5007424;28;20215;-92
2021/05/05 15:49:11;;;;;;;2.17;1.40;;;11.30;43.70;;;;;;5003601;28;20231;-93
2021/05/05 15:51:38;;;;;;;2.30;1.42;;;11.20;45.30;;;;;;5010327;28;20214;-92
2021/05/05 15:54:07;;;;;;;2.10;1.58;;;11.00;45.40;;;;;;5008684;28;21042;-92
2021/05/05 15:56:56;;;;;;;4.32;1.42;;;10.90;47.60;;;;;;4991214;28;20207;-92
2021/05/05 16:02:48;;;;;;;2.03;1.10;;;10.60;47.40;;;;;;5003876;28;20219;-92
2021/05/05 16:11:35;;;;;;;4.22;1.55;;;10.50;46.10;;;;;;5007184;28;20752;-91
2021/05/05 16:14:36;;;;;;;6.57;1.83;;;10.30;47.00;;;;;;5019300;28;20256;-92
2021/05/05 16:17:03;;;;;;;3.78;1.50;;;10.40;47.20;;;;;;4982722;28;20206;-91
2021/05/05 16:19:35;;;;;;;2.00;1.25;;;10.50;47.30;;;;;;5002763;28;20233;-91
2021/05/05 16:22:05;;;;;;;3.33;1.60;;;10.40;47.20;;;;;;4986895;28;20223;-91
2021/05/05 16:30:27;;;;;;;5.78;1.42;;;10.20;48.00;;;;;;4975104;28;20292;-90
2021/05/05 16:49:48;;;;;;;3.90;1.60;;;10.10;46.90;;;;;;4989428;28;20273;-91
2021/05/05 16:52:41;;;;;;;4.05;1.50;;;10.00;46.80;;;;;;5006513;28;20211;-91
2021/05/05 16:55:10;;;;;;;2.90;1.40;;;9.80;50.40;;;;;;4996672;28;20250;-91
2021/05/05 16:57:41;;;;;;;2.43;1.50;;;9.60;52.40;;;;;;5009144;28;20209;-92
2021/05/05 17:08:25;;;;;;;3.13;1.50;;;9.30;66.60;;;;;;5009951;28;20282;-91
2021/05/05 17:11:10;;;;;;;2.70;1.50;;;9.40;62.80;;;;;;4996757;28;20255;-92
2021/05/05 17:13:36;;;;;;;2.57;1.40;;;9.40;62.60;;;;;;5020361;28;20203;-88
2021/05/05 17:16:05;;;;;;;3.65;1.63;;;9.40;63.20;;;;;;4985711;28;20227;-90
2021/05/05 17:18:41;;;;;;;3.37;1.60;;;9.30;62.70;;;;;;4985717;28;20199;-91
2021/05/05 17:21:14;;;;;;;2.13;1.30;;;9.40;62.90;;;;;;4989914;28;20720;-90
2021/05/05 17:23:46;;;;;;;2.13;1.37;;;9.40;60.60;;;;;;5005619;28;20287;-89
2021/05/05 17:26:18;;;;;;;2.95;1.30;;;9.40;59.20;;;;;;5019386;28;20226;-91
2021/05/05 17:45:36;;;;;;;2.00;1.30;;;9.50;47.90;;;;;;4989395;28;20238;-95
2021/05/05 17:48:42;;;;;;;3.70;1.40;;;9.50;48.00;;;;;;5004693;28;20211;-94
2021/05/05 18:10:56;;;;;;;2.10;1.57;;;9.20;50.30;;;;;;5006446;28;20269;-90
2021/05/05 18:16:19;;;;;;;2.23;1.30;;;9.10;47.60;;;;;;4971119;28;20283;-90
2021/05/05 18:18:48;;;;;;;3.00;1.43;;;9.10;47.60;;;;;;5012445;28;20210;-91
2021/05/05 18:21:21;;;;;;;2.20;1.70;;;9.00;48.90;;;;;;5009113;28;20233;-91
2021/05/05 18:23:58;;;;;;;2.10;1.17;;;8.90;47.50;;;;;;5007427;28;20234;-90
2021/05/05 18:26:47;;;;;;;2.73;1.53;;;8.90;48.60;;;;;;4995572;28;20282;-91
2021/05/05 18:29:17;;;;;;;2.15;1.60;;;8.90;47.40;;;;;;5009036;28;20362;-89
2021/05/05 18:31:44;;;;;;;3.00;1.30;;;8.90;48.90;;;;;;5012314;28;20215;-89
2021/05/05 18:34:11;;;;;;;3.93;1.70;;;8.90;51.50;;;;;;5007237;28;20290;-88
2021/05/05 18:36:39;;;;;;;2.33;1.63;;;8.90;52.50;;;;;;5009982;28;20664;-89
2021/05/05 18:39:15;;;;;;;1.93;1.73;;;8.80;53.30;;;;;;5012188;28;20238;-88
2021/05/05 18:41:50;;;;;;;3.30;1.63;;;8.70;54.40;;;;;;5012015;28;20258;-88
2021/05/05 19:09:36;;;;;;;2.60;1.67;;;8.10;60.00;;;;;;5014572;28;20214;-87
2021/05/05 19:15:10;;;;;;;2.60;1.43;;;8.10;61.00;;;;;;5011448;28;20293;-86
2021/05/05 20:24:34;;;;;;;2.20;1.60;;;7.20;72.00;;;;;;5011926;28;20241;-87
2021/05/05 20:33:14;;;;;;;2.13;1.57;;;6.70;79.20;;;;;;4984741;28;20227;-86
2021/05/05 20:52:47;;;;;;;2.03;1.50;;;6.80;80.50;;;;;;5020639;28;20363;-85
2021/05/05 21:06:38;;;;;;;2.63;1.77;;;6.60;82.50;;;;;;5013506;28;20230;-92
2021/05/05 21:12:13;;;;;;;4.00;1.60;;;6.70;82.50;;;;;;5010480;28;20200;-87
2021/05/05 23:08:43;;;;;;;1.83;1.47;;;7.00;85.10;;;;;;5111786;27;20569;-88
2021/05/05 23:12:24;;;;;;;2.40;1.63;;;6.80;85.50;;;;;;5150757;27;20583;-88
2021/05/05 23:15:18;;;;;;;2.30;1.60;;;6.60;85.20;;;;;;5142654;27;20689;-88
2021/05/05 23:23:45;;;;;;;4.73;1.63;;;6.40;87.00;;;;;;5113803;28;20199;-87
2021/05/05 23:26:16;;;;;;;1.70;1.53;;;6.60;87.30;;;;;;5127242;27;20220;-88
2021/05/05 23:28:48;;;;;;;3.20;1.70;;;6.60;86.40;;;;;;5124170;27;20215;-89
2021/05/05 23:53:48;;;;;;;3.63;1.60;;;7.40;79.50;;;;;;5116858;28;20230;-87
